Time,TemperatureF,DewpointF,PressureIn,WindDirection,WindDirectionDegrees,WindSpeedMPH,WindSpeedGustMPH,Humidity,HourlyPrecipIn,Conditions,Clouds,dailyrainin,SoftwareType,DateUTC
2013-02-05 00:00:00,57.7,55.0,29.89,ESE,103,2.0,5.0,90,0.00,,,0.05,weatherlink.com 1.10,2013-02-05 06:00:00,
2013-02-05 00:15:00,58.4,56.0,29.89,East,82,1.0,5.0,90,0.00,,,0.00,weatherlink.com 1.10,2013-02-05 06:15:00,
2013-02-05 00:30:00,58.5,56.0,29.89,SE,134,1.0,5.0,90,0.00,,,0.00,weatherlink.com 1.10,2013-02-05 06:30:00,
2013-02-05 00:45:00,58.3,56.0,29.89,ENE,63,0.0,3.0,90,0.00,,,0.00,weatherlink.com 1.10,2013-02-05 06:45:00,
2013-02-05 01:00:00,57.9,55.0,29.89,SE,138,2.0,4.0,90,0.00,,,0.00,weatherlink.com 1.10,2013-02-05 07:00:00,
2013-02-05 01:15:00,57.5,55.0,29.89,East,90,0.0,3.0,91,0.00,,,0.00,weatherlink.com 1.10,2013-02-05 07:15:00,
2013-02-05 01:30:00,57.4,55.0,29.89,SE,130,1.0,5.0,92,0.00,,,0.00,weatherlink.com 1.10,2013-02-05 07:30:00,
2013-02-05 01:45:00,57.6,55.0,29.89,ENE,68,1.0,4.0,92,0.00,,,0.00,weatherlink.com 1.10,2013-02-05 07:45:00,
2013-02-05 02:00:00,57.8,56.0,29.89,ENE,66,1.0,3.0,93,0.00,,,0.00,weatherlink.com 1.10,2013-02-05 08:00:00,
2013-02-05 02:15:00,57.6,56.0,29.89,ENE,66,1.0,3.0,93,0.00,,,0.00,weatherlink.com 1.10,2013-02-05 08:15:00,
2013-02-05 02:30:00,57.4,55.0,29.89,ENE,67,0.0,3.0,93,0.00,,,0.00,weatherlink.com 1.10,2013-02-05 08:30:00,
2013-02-05 02:45:00,57.2,55.0,29.88,ESE,116,0.0,4.0,93,0.00,,,0.00,weatherlink.com 1.10,2013-02-05 08:45:00,
2013-02-05 03:00:00,57.1,55.0,29.88,ESE,123,2.0,3.0,94,0.00,,,0.00,weatherlink.com 1.10,2013-02-05 09:00:00,
2013-02-05 03:15:00,57.1,55.0,29.88,SE,136,0.0,3.0,94,0.00,,,0.00,weatherlink.com 1.10,2013-02-05 09:15:00,
2013-02-05 03:30:00,57.0,55.0,29.88,SE,136,0.0,3.0,94,0.00,,,0.00,weatherlink.com 1.10,2013-02-05 09:30:00,
2013-02-05 03:45:00,56.9,55.0,29.88,SE,136,0.0,2.0,94,0.00,,,0.00,weatherlink.com 1.10,2013-02-05 09:45:00,
2013-02-05 04:00:00,56.9,55.0,29.89,SE,136,0.0,1.0,94,0.00,,,0.00,weatherlink.com 1.10,2013-02-05 10:00:00,
2013-02-05 04:15:00,56.9,55.0,29.89,SE,136,0.0,2.0,94,0.00,,,0.00,weatherlink.com 1.10,2013-02-05 10:15:00,
2013-02-05 04:30:00,56.8,55.0,29.89,SE,136,0.0,1.0,95,0.00,,,0.00,weatherlink.com 1.10,2013-02-05 10:30:00,
2013-02-05 04:45:00,56.7,55.0,29.89,SE,136,0.0,0.0,94,0.00,,,0.00,weatherlink.com 1.10,2013-02-05 10:45:00,
2013-02-05 05:00:00,56.7,55.0,29.89,SE,136,0.0,0.0,94,0.00,,,0.00,weatherlink.com 1.10,2013-02-05 11:00:00,
2013-02-05 05:15:00,56.7,55.0,29.90,SE,136,1.0,2.0,95,0.00,,,0.00,weatherlink.com 1.10,2013-02-05 11:15:00,
2013-02-05 05:30:00,56.6,55.0,29.90,SE,136,1.0,2.0,95,0.00,,,0.00,weatherlink.com 1.10,2013-02-05 11:30:00,
2013-02-05 05:45:00,56.7,55.0,29.90,SE,136,1.0,3.0,95,0.00,,,0.00,weatherlink.com 1.10,2013-02-05 11:45:00,
2013-02-05 06:04:00,56.6,55.0,29.91,SE,136,2.0,3.0,95,0.00,,,0.00,weatherlink.com 1.10,2013-02-05 12:04:00,
2013-02-05 06:17:00,56.7,55.0,29.91,SE,136,0.0,4.0,95,0.00,,,0.00,weatherlink.com 1.10,2013-02-05 12:17:00,
2013-02-05 06:31:00,56.7,55.0,29.92,East,81,2.0,4.0,95,0.00,,,0.00,weatherlink.com 1.10,2013-02-05 12:31:00,
2013-02-05 06:46:00,56.7,55.0,29.92,ENE,61,1.0,5.0,95,0.00,,,0.00,weatherlink.com 1.10,2013-02-05 12:46:00,
2013-02-05 07:03:00,55.9,55.0,29.93,ENE,66,2.0,6.0,95,0.00,,,0.00,weatherlink.com 1.10,2013-02-05 13:03:00,
2013-02-05 07:16:00,55.2,54.0,29.93,NE,45,5.0,7.0,95,0.00,,,0.00,weatherlink.com 1.10,2013-02-05 13:16:00,
2013-02-05 07:31:00,54.9,54.0,29.94,East,83,5.0,8.0,95,0.00,,,0.00,weatherlink.com 1.10,2013-02-05 13:31:00,
2013-02-05 07:46:00,55.0,54.0,29.95,ENE,74,2.0,7.0,95,0.00,,,0.00,weatherlink.com 1.10,2013-02-05 13:46:00,
2013-02-05 08:03:00,54.9,54.0,29.96,NE,45,3.0,7.0,95,0.00,,,0.00,weatherlink.com 1.10,2013-02-05 14:03:00,
2013-02-05 08:16:00,54.5,53.0,29.97,ENE,57,7.0,9.0,95,0.00,,,0.00,weatherlink.com 1.10,2013-02-05 14:16:00,
2013-02-05 08:32:00,54.3,53.0,29.98,ENE,76,5.0,8.0,95,0.00,,,0.00,weatherlink.com 1.10,2013-02-05 14:32:00,
2013-02-05 08:46:00,54.3,53.0,29.98,NE,47,6.0,9.0,95,0.00,,,0.00,weatherlink.com 1.10,2013-02-05 14:46:00,
2013-02-05 09:02:00,54.6,53.0,29.99,NE,53,5.0,9.0,95,0.00,,,0.00,weatherlink.com 1.10,2013-02-05 15:02:00,
2013-02-05 09:16:00,54.8,54.0,29.99,NE,34,5.0,9.0,96,0.00,,,0.00,weatherlink.com 1.10,2013-02-05 15:16:00,
2013-02-05 09:32:00,55.3,54.0,29.99,East,88,3.0,9.0,96,0.00,,,0.00,weatherlink.com 1.10,2013-02-05 15:32:00,
2013-02-05 09:48:00,56.1,55.0,29.99,ENE,74,2.0,9.0,96,0.00,,,0.00,weatherlink.com 1.10,2013-02-05 15:48:00,
2013-02-05 10:02:00,56.9,56.0,29.99,ENE,70,3.0,8.0,96,0.00,,,0.00,weatherlink.com 1.10,2013-02-05 16:02:00,
2013-02-05 10:18:00,58.4,57.0,29.99,ENE,63,5.0,11.0,96,0.01,,,0.01,weatherlink.com 1.10,2013-02-05 16:18:00,
2013-02-05 10:32:00,58.8,58.0,29.99,ENE,63,2.0,9.0,96,0.01,,,0.01,weatherlink.com 1.10,2013-02-05 16:32:00,
2013-02-05 10:47:00,59.6,58.0,30.00,NE,55,3.0,9.0,95,0.01,,,0.01,weatherlink.com 1.10,2013-02-05 16:47:00,
2013-02-05 11:02:00,60.7,58.0,30.00,East,84,1.0,7.0,92,0.01,,,0.01,weatherlink.com 1.10,2013-02-05 17:02:00,
2013-02-05 11:17:00,62.6,60.0,29.99,East,91,5.0,8.0,90,0.00,,,0.01,weatherlink.com 1.10,2013-02-05 17:17:00,
2013-02-05 11:32:00,63.2,60.0,29.99,East,94,1.0,7.0,88,0.00,,,0.01,weatherlink.com 1.10,2013-02-05 17:32:00,
2013-02-05 11:47:00,63.9,60.0,29.99,East,92,2.0,8.0,86,0.00,,,0.01,weatherlink.com 1.10,2013-02-05 17:47:00,
2013-02-05 12:02:00,63.7,60.0,29.99,ENE,61,4.0,10.0,86,0.00,,,0.01,weatherlink.com 1.10,2013-02-05 18:02:00,
2013-02-05 12:17:00,63.5,59.0,29.99,ENE,67,5.0,9.0,86,0.00,,,0.01,weatherlink.com 1.10,2013-02-05 18:17:00,
2013-02-05 12:33:00,63.1,59.0,29.99,NE,36,4.0,10.0,87,0.00,,,0.01,weatherlink.com 1.10,2013-02-05 18:33:00,
2013-02-05 12:47:00,63.0,59.0,29.98,NNE,26,4.0,8.0,87,0.00,,,0.01,weatherlink.com 1.10,2013-02-05 18:47:00,
2013-02-05 13:02:00,63.1,59.0,29.98,NE,52,6.0,8.0,87,0.00,,,0.01,weatherlink.com 1.10,2013-02-05 19:02:00,
2013-02-05 13:17:00,62.9,59.0,29.97,East,89,3.0,8.0,87,0.00,,,0.01,weatherlink.com 1.10,2013-02-05 19:17:00,
2013-02-05 13:34:00,63.0,59.0,29.96,East,86,2.0,5.0,87,0.00,,,0.01,weatherlink.com 1.10,2013-02-05 19:34:00,
2013-02-05 13:48:00,63.2,59.0,29.96,ENE,61,4.0,6.0,87,0.00,,,0.01,weatherlink.com 1.10,2013-02-05 19:48:00,
2013-02-05 14:03:00,63.2,59.0,29.96,NE,55,2.0,8.0,87,0.00,,,0.01,weatherlink.com 1.10,2013-02-05 20:03:00,
2013-02-05 14:19:00,63.5,59.0,29.95,ENE,67,2.0,7.0,86,0.00,,,0.01,weatherlink.com 1.10,2013-02-05 20:19:00,
2013-02-05 14:35:00,63.3,59.0,29.95,ENE,61,4.0,8.0,87,0.00,,,0.01,weatherlink.com 1.10,2013-02-05 20:35:00,
2013-02-05 14:49:00,63.5,60.0,29.95,ENE,58,4.0,9.0,87,0.00,,,0.01,weatherlink.com 1.10,2013-02-05 20:49:00,
2013-02-05 15:03:00,63.8,60.0,29.94,NE,46,4.0,9.0,86,0.00,,,0.01,weatherlink.com 1.10,2013-02-05 21:03:00,
2013-02-05 15:18:00,64.9,60.0,29.94,ENE,69,3.0,9.0,84,0.00,,,0.01,weatherlink.com 1.10,2013-02-05 21:18:00,
2013-02-05 15:35:00,64.0,60.0,29.95,NNE,30,4.0,6.0,85,0.00,,,0.01,weatherlink.com 1.10,2013-02-05 21:35:00,
2013-02-05 15:49:00,63.3,59.0,29.95,NE,46,5.0,6.0,87,0.00,,,0.01,weatherlink.com 1.10,2013-02-05 21:49:00,
2013-02-05 16:03:00,62.8,59.0,29.95,NNE,23,4.0,8.0,87,0.00,,,0.01,weatherlink.com 1.10,2013-02-05 22:03:00,
2013-02-05 16:18:00,63.1,59.0,29.95,NNE,17,8.0,10.0,87,0.00,,,0.01,weatherlink.com 1.10,2013-02-05 22:18:00,
2013-02-05 16:33:00,62.9,59.0,29.95,NE,55,3.0,9.0,87,0.00,,,0.01,weatherlink.com 1.10,2013-02-05 22:33:00,
2013-02-05 16:49:00,62.9,59.0,29.95,NNE,23,4.0,12.0,87,0.00,,,0.01,weatherlink.com 1.10,2013-02-05 22:49:00,
2013-02-05 17:03:00,62.8,59.0,29.95,ENE,62,3.0,7.0,87,0.00,,,0.01,weatherlink.com 1.10,2013-02-05 23:03:00,
2013-02-05 17:19:00,62.7,59.0,29.95,NE,40,3.0,7.0,88,0.00,,,0.01,weatherlink.com 1.10,2013-02-05 23:19:00,
2013-02-05 17:33:00,62.6,59.0,29.95,NNE,17,4.0,9.0,88,0.00,,,0.01,weatherlink.com 1.10,2013-02-05 23:33:00,
2013-02-05 17:48:00,62.0,59.0,29.95,NE,43,4.0,9.0,88,0.00,,,0.01,weatherlink.com 1.10,2013-02-05 23:48:00,
2013-02-05 18:04:00,61.3,58.0,29.96,NE,53,5.0,10.0,89,0.00,,,0.01,weatherlink.com 1.10,2013-02-06 00:04:00,
2013-02-05 18:19:00,60.9,58.0,29.96,NE,51,4.0,12.0,89,0.00,,,0.01,weatherlink.com 1.10,2013-02-06 00:19:00,
2013-02-05 18:34:00,60.5,58.0,29.97,NE,36,4.0,10.0,90,0.00,,,0.01,weatherlink.com 1.10,2013-02-06 00:34:00,
2013-02-05 18:51:00,59.9,57.0,29.97,NE,44,4.0,8.0,90,0.00,,,0.01,weatherlink.com 1.10,2013-02-06 00:51:00,
2013-02-05 19:05:00,59.6,57.0,29.98,NNE,26,5.0,9.0,90,0.00,,,0.01,weatherlink.com 1.10,2013-02-06 01:05:00,
2013-02-05 19:19:00,59.1,57.0,29.98,ENE,67,7.0,9.0,91,0.00,,,0.01,weatherlink.com 1.10,2013-02-06 01:19:00,
2013-02-05 19:34:00,58.6,56.0,29.98,NE,46,3.0,7.0,91,0.00,,,0.01,weatherlink.com 1.10,2013-02-06 01:34:00,
2013-02-05 19:51:00,58.0,56.0,29.99,ENE,78,3.0,8.0,92,0.00,,,0.01,weatherlink.com 1.10,2013-02-06 01:51:00,
2013-02-05 20:05:00,57.8,56.0,30.00,NE,38,3.0,9.0,92,0.00,,,0.01,weatherlink.com 1.10,2013-02-06 02:05:00,
2013-02-05 20:19:00,57.7,56.0,30.00,NE,39,3.0,9.0,93,0.00,,,0.01,weatherlink.com 1.10,2013-02-06 02:19:00,
2013-02-05 20:34:00,57.5,56.0,30.00,ENE,74,4.0,10.0,93,0.00,,,0.01,weatherlink.com 1.10,2013-02-06 02:34:00,
2013-02-05 20:50:00,57.5,56.0,30.01,NE,55,5.0,9.0,93,0.00,,,0.01,weatherlink.com 1.10,2013-02-06 02:50:00,
2013-02-05 21:05:00,57.4,55.0,30.01,NNE,32,5.0,8.0,92,0.00,,,0.01,weatherlink.com 1.10,2013-02-06 03:05:00,
2013-02-05 21:20:00,57.1,55.0,30.00,ENE,76,3.0,10.0,92,0.00,,,0.01,weatherlink.com 1.10,2013-02-06 03:20:00,
2013-02-05 21:34:00,56.7,55.0,30.00,ENE,66,4.0,9.0,92,0.00,,,0.01,weatherlink.com 1.10,2013-02-06 03:34:00,
2013-02-05 21:49:00,56.5,55.0,30.00,ENE,76,4.0,8.0,93,0.00,,,0.01,weatherlink.com 1.10,2013-02-06 03:49:00,
2013-02-05 22:05:00,56.2,54.0,30.00,ENE,63,8.0,8.0,93,0.00,,,0.01,weatherlink.com 1.10,2013-02-06 04:05:00,
2013-02-05 22:21:00,56.1,54.0,30.00,ENE,67,3.0,7.0,93,0.00,,,0.01,weatherlink.com 1.10,2013-02-06 04:21:00,
2013-02-05 22:35:00,55.8,54.0,30.01,ENE,69,4.0,9.0,93,0.00,,,0.01,weatherlink.com 1.10,2013-02-06 04:35:00,
2013-02-05 22:50:00,55.5,54.0,30.01,ENE,66,3.0,7.0,93,0.00,,,0.01,weatherlink.com 1.10,2013-02-06 04:50:00,
2013-02-05 23:06:00,55.5,54.0,30.01,ENE,63,4.0,5.0,94,0.00,,,0.01,weatherlink.com 1.10,2013-02-06 05:06:00,
2013-02-05 23:21:00,55.3,54.0,30.01,ENE,59,1.0,4.0,94,0.00,,,0.01,weatherlink.com 1.10,2013-02-06 05:21:00,
2013-02-05 23:35:00,55.2,54.0,30.01,East,90,1.0,3.0,94,0.00,,,0.01,weatherlink.com 1.10,2013-02-06 05:35:00,
2013-02-05 23:50:00,55.2,54.0,30.01,ENE,70,2.0,5.0,94,0.00,,,0.01,weatherlink.com 1.10,2013-02-06 05:50:00,